Time;durP1;ratioP1;P1;durP2;ratioP2;P2;SDS_P1;SDS_P2;PMS_P1;PMS_P2;Temp;Humidity;BMP_temperature;BMP_pressure;BME280_temperature;BME280_humidity;BME280_pressure;Samples;Min_cycle;Max_cycle;Signal;HPM_P1;HPM_P2
2024/01/13 00:06:50;;;;;;;24.88;17.70;;;;;;;2.20;100.00;102905.22;5055413;28;20032;-83
2024/01/13 00:09:46;;;;;;;30.80;19.15;;;;;;;2.19;100.00;102909.47;5053992;28;20025;-82
2024/01/13 00:12:20;;;;;;;30.55;19.38;;;;;;;0.99;100.00;102708.44;5055679;28;20105;-83
2024/01/13 00:14:52;;;;;;;28.65;19.50;;;;;;;1.43;100.00;102782.50;5055395;28;20115;-82
2024/01/13 00:17:27;;;;;;;30.23;19.17;;;;;;;0.93;100.00;102693.13;5055429;28;20025;-83
2024/01/13 00:20:20;;;;;;;26.08;19.20;;;;;;;2.17;100.00;102900.97;5055245;28;20087;-83
2024/01/13 00:23:07;;;;;;;27.23;19.67;;;;;;;2.20;100.00;102900.13;5106352;23;20049;-84
2024/01/13 00:25:45;;;;;;;30.02;19.70;;;;;;;1.27;100.00;102745.06;5034396;28;20400;-83
2024/01/13 00:28:10;;;;;;;27.08;19.17;;;;;;;0.96;100.00;102687.19;5035546;28;20378;-84
2024/01/13 00:30:51;;;;;;;31.52;21.05;;;;;;;1.03;100.00;102688.94;5032918;28;20014;-83
2024/01/13 00:33:16;;;;;;;26.33;19.77;;;;;;;1.30;100.00;102737.47;5035242;28;20389;-83
2024/01/13 00:35:45;;;;;;;28.27;20.08;;;;;;;1.73;100.00;102826.81;5033783;28;20030;-83
2024/01/13 00:40:48;;;;;;;28.02;20.00;;;;;;;1.13;100.00;102716.13;4987215;26;20050;-84
2024/01/13 00:43:17;;;;;;;26.85;18.95;;;;;;;0.97;100.00;102682.09;4995618;28;20487;-84
2024/01/13 00:45:42;;;;;;;27.20;19.25;;;;;;;1.72;100.00;102800.50;4995502;28;20620;-84
2024/01/13 00:48:45;;;;;;;28.52;18.70;;;;;;;2.21;100.00;102872.06;4995600;28;20034;-83
2024/01/13 00:51:16;;;;;;;26.95;19.63;;;;;;;1.22;100.00;102711.09;4995615;28;20034;-84
2024/01/13 00:53:51;;;;;;;24.10;18.55;;;;;;;2.20;100.00;102875.47;4995556;28;20471;-84
2024/01/13 00:56:19;;;;;;;26.90;18.08;;;;;;;1.90;100.00;102822.66;4995498;28;20367;-84
2024/01/13 01:02:12;;;;;;;26.35;17.90;;;;;;;1.08;100.00;102669.44;4995504;28;20085;-83
2024/01/13 01:04:41;;;;;;;23.25;17.98;;;;;;;1.04;100.00;102667.75;4995111;28;20058;-83
2024/01/13 01:07:19;;;;;;;24.75;18.42;;;;;;;1.67;100.00;102770.75;4995198;28;20494;-84
2024/01/13 01:09:44;;;;;;;26.67;19.10;;;;;;;1.77;100.00;102792.00;4995171;28;20109;-83
2024/01/13 01:12:25;;;;;;;28.65;18.52;;;;;;;1.14;100.00;102679.69;4995031;28;20053;-83
2024/01/13 01:15:02;;;;;;;25.40;17.97;;;;;;;1.07;100.00;102660.13;4994953;28;20467;-83
2024/01/13 01:17:31;;;;;;;26.05;17.73;;;;;;;1.32;100.00;102696.75;4995181;28;20157;-83
2024/01/13 01:20:09;;;;;;;26.95;18.77;;;;;;;1.67;100.00;102752.91;4956982;28;20035;-83
2024/01/13 01:22:47;;;;;;;27.60;18.98;;;;;;;1.02;100.00;102644.00;4973384;28;20277;-83
2024/01/13 01:25:16;;;;;;;27.45;19.80;;;;;;;2.08;100.00;102826.16;4973311;28;20047;-83
2024/01/13 01:27:44;;;;;;;26.88;20.13;;;;;;;0.91;100.00;102631.22;4973037;28;20475;-83
2024/01/13 01:30:10;;;;;;;28.73;20.17;;;;;;;1.17;100.00;102683.91;4973303;28;20499;-83
2024/01/13 01:32:48;;;;;;;26.65;20.35;;;;;;;2.09;100.00;102820.22;4972975;28;20054;-83
2024/01/13 01:35:22;;;;;;;27.45;20.67;;;;;;;1.63;100.00;102749.50;4973049;28;20050;-84
2024/01/13 01:37:59;;;;;;;26.17;19.70;;;;;;;0.74;100.00;102609.91;4973125;28;20482;-83
2024/01/13 01:40:34;;;;;;;26.95;19.10;;;;;;;1.47;100.00;102717.16;4972536;28;20476;-83
2024/01/13 01:43:14;;;;;;;28.42;20.13;;;;;;;1.83;100.00;102786.97;4972812;28;20035;-83
2024/01/13 01:45:59;;;;;;;28.20;19.98;;;;;;;1.59;100.00;102747.81;4971508;28;20050;-83
2024/01/13 01:51:20;;;;;;;25.80;18.85;;;;;;;1.39;100.00;102714.59;4987143;28;20399;-83
2024/01/13 01:53:47;;;;;;;24.90;18.33;;;;;;;0.81;100.00;102604.03;4994625;28;20022;-84
2024/01/13 01:56:16;;;;;;;25.80;18.33;;;;;;;1.17;100.00;102678.84;4994259;28;20038;-83
2024/01/13 01:58:57;;;;;;;25.85;19.05;;;;;;;2.07;100.00;102814.25;4994129;28;20023;-83
2024/01/13 02:01:43;;;;;;;24.88;18.63;;;;;;;2.07;100.00;102816.81;4992732;28;20042;-83
2024/01/13 02:04:14;;;;;;;26.80;17.63;;;;;;;0.87;100.00;102606.59;4992925;28;20036;-84
2024/01/13 02:06:58;;;;;;;24.27;18.58;;;;;;;1.64;100.00;102730.84;4993838;28;20026;-83
2024/01/13 02:09:26;;;;;;;23.08;18.60;;;;;;;0.97;100.00;102618.50;4994058;28;20053;-83
2024/01/13 02:11:58;;;;;;;26.77;19.20;;;;;;;1.30;100.00;102686.56;4993674;28;20026;-83
2024/01/13 02:14:23;;;;;;;25.27;18.55;;;;;;;0.96;100.00;102615.97;5001424;23;20042;-83
2024/01/13 02:17:01;;;;;;;25.77;19.02;;;;;;;0.88;100.00;102603.19;4993818;28;20090;-83
2024/01/13 02:19:36;;;;;;;25.77;18.17;;;;;;;0.91;100.00;102603.25;4993953;28;20057;-83
2024/01/13 02:22:02;;;;;;;23.52;18.33;;;;;;;1.25;100.00;102656.81;4994202;28;20102;-83
2024/01/13 02:24:30;;;;;;;25.90;18.75;;;;;;;1.14;100.00;102633.88;4993671;28;20034;-83
2024/01/13 02:26:55;;;;;;;27.02;19.73;;;;;;;1.36;100.00;102663.66;4992405;28;20054;-84
2024/01/13 02:29:21;;;;;;;29.05;19.75;;;;;;;1.35;100.00;102656.03;4993408;28;20122;-83
2024/01/13 02:31:58;;;;;;;24.02;18.85;;;;;;;2.08;100.00;102773.50;4993725;28;20026;-84
2024/01/13 02:34:27;;;;;;;25.85;20.05;;;;;;;0.85;100.00;102570.97;4993700;28;20065;-84
2024/01/13 02:36:55;;;;;;;25.33;19.55;;;;;;;0.94;100.00;102576.97;4993720;28;20034;-83
2024/01/13 02:39:23;;;;;;;26.33;20.02;;;;;;;0.88;100.00;102564.19;4976067;28;20023;-82
2024/01/13 02:41:58;;;;;;;24.63;19.63;;;;;;;2.11;100.00;102768.38;4992108;28;20026;-83
2024/01/13 02:44:23;;;;;;;28.13;20.73;;;;;;;1.69;100.00;102685.03;4993428;28;20493;-83
2024/01/13 02:50:14;;;;;;;26.45;20.13;;;;;;;1.19;100.00;102588.97;4993741;28;20045;-84
2024/01/13 02:52:40;;;;;;;26.02;20.73;;;;;;;1.29;100.00;102605.13;4993646;28;20023;-84
2024/01/13 02:55:06;;;;;;;28.90;20.40;;;;;;;2.07;100.00;102722.53;4993215;28;20026;-84
2024/01/13 02:57:31;;;;;;;25.00;20.25;;;;;;;1.89;100.00;102692.75;4993355;28;20026;-84
2024/01/13 02:59:56;;;;;;;28.80;21.50;;;;;;;2.03;100.00;102724.19;4993197;28;20018;-83
2024/01/13 03:02:22;;;;;;;27.55;21.70;;;;;;;1.98;100.00;102715.69;4993317;28;20418;-84
2024/01/13 03:04:47;;;;;;;26.05;20.25;;;;;;;2.03;100.00;102714.00;4992890;28;20117;-84
2024/01/13 03:07:13;;;;;;;25.80;20.23;;;;;;;2.01;100.00;102708.91;4993360;28;20030;-84
2024/01/13 03:09:39;;;;;;;26.65;20.80;;;;;;;2.00;100.00;102703.81;4992989;28;20014;-83
2024/01/13 03:12:05;;;;;;;26.83;20.60;;;;;;;1.99;100.00;102714.84;4993032;28;20024;-84
2024/01/13 03:14:30;;;;;;;25.27;20.50;;;;;;;1.96;100.00;102705.47;4992833;28;20042;-83
2024/01/13 03:16:55;;;;;;;25.75;20.17;;;;;;;1.95;100.00;102692.75;5008226;28;20363;-83
2024/01/13 03:19:21;;;;;;;24.35;18.75;;;;;;;1.90;100.00;102687.66;4993143;28;20054;-83
2024/01/13 03:21:46;;;;;;;24.65;19.48;;;;;;;1.90;100.00;102692.75;4992945;28;20061;-83
2024/01/13 03:24:12;;;;;;;23.33;19.33;;;;;;;1.69;100.00;102646.84;4991698;28;20065;-83
2024/01/13 03:26:37;;;;;;;24.20;18.77;;;;;;;1.41;100.00;102602.59;4992676;28;20075;-83
2024/01/13 03:29:02;;;;;;;20.73;17.73;;;;;;;1.47;100.00;102594.13;4975329;28;20027;-83
2024/01/13 03:31:28;;;;;;;21.75;17.13;;;;;;;1.82;100.00;102656.19;4992677;28;20023;-83
2024/01/13 03:33:53;;;;;;;23.48;16.83;;;;;;;1.93;100.00;102667.25;4992966;28;20598;-83
2024/01/13 03:36:18;;;;;;;20.45;15.90;;;;;;;1.94;100.00;102668.13;4992917;28;20031;-84
2024/01/13 03:38:44;;;;;;;18.50;15.50;;;;;;;1.90;100.00;102661.31;4992437;28;20022;-83
2024/01/13 03:41:10;;;;;;;21.35;14.50;;;;;;;1.99;100.00;102661.34;4992596;28;20074;-82
2024/01/13 03:43:35;;;;;;;19.38;14.30;;;;;;;1.99;100.00;102659.66;4992461;28;20412;-83
2024/01/13 03:46:01;;;;;;;18.48;14.40;;;;;;;2.00;100.00;102655.41;4992665;28;20034;-82
2024/01/13 03:48:27;;;;;;;18.58;13.73;;;;;;;1.69;100.00;102601.00;4992626;28;20018;-83
2024/01/13 03:50:52;;;;;;;19.20;13.18;;;;;;;1.99;100.00;102656.25;4992877;28;20098;-82
2024/01/13 03:53:17;;;;;;;16.45;13.20;;;;;;;2.03;100.00;102649.44;4992628;28;20049;-84
2024/01/13 03:55:43;;;;;;;15.95;12.55;;;;;;;1.91;100.00;102632.44;4992933;28;20026;-83
2024/01/13 03:58:09;;;;;;;15.68;11.68;;;;;;;1.94;100.00;102629.91;4992958;28;20029;-83
2024/01/13 04:00:34;;;;;;;14.68;11.30;;;;;;;1.86;100.00;102609.50;4990677;28;20038;-82
2024/01/13 04:03:01;;;;;;;14.63;11.77;;;;;;;1.73;100.00;102587.41;4992436;28;20034;-83
2024/01/13 04:05:26;;;;;;;13.60;10.88;;;;;;;1.71;100.00;102582.31;4991206;28;20038;-83
2024/01/13 04:07:52;;;;;;;13.43;10.63;;;;;;;2.06;100.00;102637.56;4995995;28;20042;-83
2024/01/13 04:10:17;;;;;;;13.23;10.60;;;;;;;2.06;100.00;102629.91;4996524;28;20029;-84
2024/01/13 04:12:45;;;;;;;12.60;9.10;;;;;;;2.07;100.00;102629.09;4995611;28;20105;-83
2024/01/13 04:15:10;;;;;;;12.13;9.93;;;;;;;2.09;100.00;102629.94;4995964;28;20115;-82
2024/01/13 04:17:36;;;;;;;11.90;8.80;;;;;;;2.08;100.00;102629.94;4994812;28;20534;-82
2024/01/13 04:20:01;;;;;;;12.68;8.75;;;;;;;2.08;100.00;102628.22;4995811;28;20026;-82
2024/01/13 04:22:27;;;;;;;11.23;8.18;;;;;;;2.04;100.00;102618.88;4995851;28;20022;-82
2024/01/13 04:24:52;;;;;;;10.80;8.30;;;;;;;2.08;100.00;102612.94;4996021;28;20504;-82
2024/01/13 04:27:17;;;;;;;11.98;8.20;;;;;;;1.80;100.00;102568.75;4995819;28;20378;-82
2024/01/13 04:29:43;;;;;;;11.45;7.95;;;;;;;2.07;100.00;102612.94;4995604;28;20608;-82
2024/01/13 04:32:08;;;;;;;12.25;7.60;;;;;;;2.05;100.00;102606.97;4995655;28;20034;-83
2024/01/13 04:34:33;;;;;;;10.45;7.40;;;;;;;2.08;100.00;102609.56;4995800;28;20552;-82
2024/01/13 04:37:00;;;;;;;9.60;7.30;;;;;;;1.89;100.00;102591.69;4995818;28;20161;-82
2024/01/13 04:39:26;;;;;;;10.98;7.10;;;;;;;1.86;100.00;102578.09;4995509;28;20058;-82
2024/01/13 04:41:51;;;;;;;9.25;6.68;;;;;;;1.85;100.00;102571.28;4995661;28;20030;-82
2024/01/13 04:44:16;;;;;;;9.07;6.15;;;;;;;1.89;100.00;102578.94;4995635;28;20022;-82
2024/01/13 04:46:42;;;;;;;9.93;6.75;;;;;;;2.04;100.00;102607.81;4995676;28;20482;-82
2024/01/13 04:49:07;;;;;;;8.90;6.45;;;;;;;1.83;100.00;102567.91;5009502;28;20069;-82
2024/01/13 04:51:32;;;;;;;9.45;6.28;;;;;;;2.04;100.00;102610.38;4995584;28;20030;-82
2024/01/13 04:53:58;;;;;;;9.93;6.55;;;;;;;2.00;100.00;102600.19;4995337;28;20030;-83
2024/01/13 04:56:23;;;;;;;11.18;6.95;;;;;;;1.85;100.00;102569.59;4994122;28;20038;-83
2024/01/13 04:58:49;;;;;;;10.23;7.05;;;;;;;2.06;100.00;102601.88;4995494;28;20085;-83
2024/01/13 05:01:15;;;;;;;10.73;7.47;;;;;;;2.06;100.00;102603.56;4995196;28;20030;-83
2024/01/13 05:03:40;;;;;;;9.32;6.63;;;;;;;2.04;100.00;102602.72;4994968;28;20034;-83
2024/01/13 05:06:06;;;;;;;11.20;7.32;;;;;;;2.04;100.00;102601.03;4995163;28;20030;-84
2024/01/13 05:08:32;;;;;;;10.90;7.78;;;;;;;2.06;100.00;102595.94;4995313;28;20026;-84
2024/01/13 05:10:58;;;;;;;11.57;7.88;;;;;;;1.91;100.00;102577.25;4995028;28;20070;-84
2024/01/13 05:13:23;;;;;;;11.82;7.60;;;;;;;1.87;100.00;102575.56;4994097;28;20030;-83
2024/01/13 05:15:48;;;;;;;12.50;8.55;;;;;;;2.05;100.00;102605.28;5009684;28;20038;-84
2024/01/13 05:18:14;;;;;;;13.45;9.13;;;;;;;1.88;100.00;102576.41;4994714;28;20470;-84
2024/01/13 05:20:47;;;;;;;13.45;9.18;;;;;;;1.09;100.00;102434.56;5001628;23;20469;-83
2024/01/13 05:23:15;;;;;;;12.07;8.68;;;;;;;0.86;100.00;102406.53;4977439;28;20121;-84
2024/01/13 05:25:51;;;;;;;13.07;9.68;;;;;;;0.95;100.00;102415.88;4977253;28;20483;-84
2024/01/13 05:28:22;;;;;;;13.00;9.20;;;;;;;0.84;100.00;102403.97;4994848;28;20382;-84
2024/01/13 05:30:47;;;;;;;14.82;10.18;;;;;;;0.83;100.00;102409.91;4994616;28;20023;-84
2024/01/13 05:33:13;;;;;;;14.50;10.18;;;;;;;0.92;100.00;102411.63;4977294;28;20364;-84
2024/01/13 05:35:38;;;;;;;14.73;10.45;;;;;;;1.14;100.00;102450.69;4994549;28;20033;-84
2024/01/13 05:38:19;;;;;;;14.88;10.57;;;;;;;1.50;100.00;102522.88;4977398;28;20426;-84
2024/01/13 05:47:49;;;;;;;16.42;11.98;;;;;;;1.52;100.00;102503.34;4994724;28;20049;-84
2024/01/13 05:50:14;;;;;;;18.08;13.40;;;;;;;1.98;100.00;102584.06;4977274;28;20029;-85
2024/01/13 05:52:39;;;;;;;17.45;13.38;;;;;;;1.62;100.00;102527.97;4994564;28;20034;-84
2024/01/13 05:55:13;;;;;;;18.55;14.02;;;;;;;0.84;100.00;102409.06;4994293;28;20053;-84
2024/01/13 05:57:48;;;;;;;19.35;14.02;;;;;;;1.89;100.00;102573.00;4994284;28;20041;-84
2024/01/13 06:00:19;;;;;;;21.67;14.82;;;;;;;1.42;100.00;102498.25;4976910;28;20074;-83
2024/01/13 06:02:54;;;;;;;21.85;15.65;;;;;;;1.88;100.00;102579.81;4994296;28;20034;-83
2024/01/13 06:05:19;;;;;;;24.75;16.85;;;;;;;1.83;100.00;102575.53;4994194;28;20494;-81
2024/01/13 06:07:44;;;;;;;21.98;16.08;;;;;;;1.96;100.00;102595.91;4994070;28;20030;-84
2024/01/13 06:10:11;;;;;;;26.13;17.30;;;;;;;1.94;100.00;102595.06;4994167;28;20030;-83
2024/01/13 06:12:36;;;;;;;23.52;17.88;;;;;;;1.88;100.00;102567.06;4994049;28;20030;-84
2024/01/13 06:15:02;;;;;;;27.50;18.83;;;;;;;1.95;100.00;102565.34;4994255;28;20041;-83
2024/01/13 06:17:27;;;;;;;26.70;19.67;;;;;;;1.95;100.00;102562.81;4993876;28;20030;-84
2024/01/13 06:19:52;;;;;;;28.52;21.45;;;;;;;1.66;100.00;102509.28;4976187;28;20026;-84
2024/01/13 06:22:18;;;;;;;28.20;20.20;;;;;;;1.94;100.00;102538.19;4976299;28;20498;-82
2024/01/13 06:24:43;;;;;;;28.63;21.10;;;;;;;1.79;100.00;102516.13;4976403;28;20026;-82
2024/01/13 06:27:09;;;;;;;31.08;23.63;;;;;;;1.80;100.00;102506.78;4993564;28;20030;-82
2024/01/13 06:29:34;;;;;;;32.35;22.33;;;;;;;1.86;100.00;102527.97;4993145;28;20101;-84
2024/01/13 06:31:59;;;;;;;33.75;24.58;;;;;;;1.46;100.00;102449.88;4993490;28;20030;-83
2024/01/13 06:34:25;;;;;;;34.90;25.25;;;;;;;1.87;100.00;102527.16;4992403;28;20120;-82
2024/01/13 06:36:50;;;;;;;34.47;25.92;;;;;;;1.31;100.00;102446.47;4976081;28;20045;-83
2024/01/13 06:39:16;;;;;;;39.22;28.20;;;;;;;1.90;100.00;102539.91;4976230;28;20029;-83
2024/01/13 06:41:41;;;;;;;38.63;28.42;;;;;;;1.58;100.00;102478.75;4975901;28;20049;-83
2024/01/13 06:44:06;;;;;;;38.10;27.98;;;;;;;1.88;100.00;102521.22;4993763;28;20027;-83
2024/01/13 06:46:32;;;;;;;41.70;29.48;;;;;;;1.82;100.00;102518.66;4993106;28;20435;-83
2024/01/13 06:49:08;;;;;;;39.88;29.50;;;;;;;1.66;100.00;102489.78;4989834;23;20057;-83
2024/01/13 06:51:51;;;;;;;42.15;30.02;;;;;;;1.36;100.00;102437.13;4991979;28;20085;-83
2024/01/13 06:54:29;;;;;;;42.38;30.05;;;;;;;0.69;100.00;102307.34;4993091;28;20030;-84
2024/01/13 06:57:00;;;;;;;41.95;30.55;;;;;;;1.01;100.00;102360.78;4993143;28;20593;-83
2024/01/13 06:59:33;;;;;;;43.17;30.48;;;;;;;1.15;100.00;102388.78;4993041;28;20080;-83
2024/01/13 07:01:58;;;;;;;41.20;30.25;;;;;;;1.80;100.00;102478.75;4991660;28;20022;-82
2024/01/13 07:04:23;;;;;;;46.35;30.55;;;;;;;1.47;100.00;102431.19;4993205;28;20189;-83
2024/01/13 07:06:49;;;;;;;44.13;32.42;;;;;;;1.93;100.00;102471.09;4993181;28;20110;-83
2024/01/13 07:09:17;;;;;;;41.92;31.42;;;;;;;1.68;100.00;102426.13;4991924;28;20053;-81
2024/01/13 07:11:42;;;;;;;42.95;30.83;;;;;;;1.96;100.00;102467.69;5009674;28;20061;-78
2024/01/13 07:14:07;;;;;;;42.95;30.90;;;;;;;1.40;100.00;102379.47;5013022;28;20060;-78
2024/01/13 07:16:33;;;;;;;46.17;32.80;;;;;;;1.96;100.00;102467.69;5012738;28;20037;-79
2024/01/13 07:18:59;;;;;;;43.70;31.58;;;;;;;1.99;100.00;102460.06;5012323;28;20045;-78
2024/01/13 07:21:24;;;;;;;44.17;32.38;;;;;;;2.01;100.00;102474.50;5012880;28;20052;-79
2024/01/13 07:23:50;;;;;;;42.08;31.23;;;;;;;2.05;100.00;102461.75;5010899;28;20038;-79
2024/01/13 07:26:15;;;;;;;42.35;31.30;;;;;;;2.03;100.00;102454.09;5012194;28;20466;-80
2024/01/13 07:28:40;;;;;;;42.95;30.13;;;;;;;2.06;100.00;102455.78;5012517;28;20026;-81
2024/01/13 07:31:06;;;;;;;42.72;31.25;;;;;;;1.90;100.00;102422.72;5012553;28;20064;-79
2024/01/13 07:33:31;;;;;;;39.22;30.30;;;;;;;2.09;100.00;102460.91;5012320;28;20105;-78
2024/01/13 07:35:57;;;;;;;41.90;30.48;;;;;;;2.10;100.00;102460.91;4994743;28;20055;-79
2024/01/13 07:38:22;;;;;;;42.22;30.60;;;;;;;2.05;100.00;102449.84;5012312;28;20497;-79
2024/01/13 07:40:48;;;;;;;39.75;28.83;;;;;;;2.08;100.00;102459.22;5014470;28;20034;-80
2024/01/13 07:43:13;;;;;;;41.20;28.40;;;;;;;2.09;100.00;102448.16;4999036;28;20458;-78
2024/01/13 07:45:38;;;;;;;40.17;29.15;;;;;;;1.83;100.00;102402.34;5016030;28;20382;-82
2024/01/13 07:48:04;;;;;;;40.78;30.13;;;;;;;2.10;100.00;102439.66;5009679;28;20467;-79
2024/01/13 07:50:29;;;;;;;39.63;28.08;;;;;;;2.04;100.00;102434.56;4996444;28;20065;-80
2024/01/13 07:52:54;;;;;;;37.67;28.98;;;;;;;1.86;100.00;102395.53;4996595;28;20126;-77
2024/01/13 07:55:20;;;;;;;38.75;29.20;;;;;;;2.10;100.00;102442.22;4996351;28;20030;-82
2024/01/13 07:57:45;;;;;;;39.72;28.85;;;;;;;1.97;100.00;102434.59;4996704;28;20034;-82
2024/01/13 08:00:12;;;;;;;38.95;28.45;;;;;;;2.00;100.00;102432.03;4996482;28;20467;-82
2024/01/13 08:02:37;;;;;;;38.05;29.00;;;;;;;2.03;100.00;102418.44;4996350;28;20037;-83
2024/01/13 08:05:03;;;;;;;40.70;29.33;;;;;;;2.10;100.00;102398.88;4996019;28;20019;-82
2024/01/13 08:07:30;;;;;;;41.03;29.10;;;;;;;2.12;100.00;102392.09;4996224;28;20050;-83
2024/01/13 08:09:56;;;;;;;40.67;28.52;;;;;;;1.87;100.00;102373.44;4994719;28;20056;-82
2024/01/13 08:12:21;;;;;;;40.55;28.48;;;;;;;2.09;100.00;102403.13;4996397;28;20486;-81
2024/01/13 08:14:47;;;;;;;38.85;28.58;;;;;;;2.15;100.00;102420.09;4996059;28;20391;-82
2024/01/13 08:17:12;;;;;;;42.75;30.48;;;;;;;1.84;100.00;102350.53;4996017;28;20030;-81
2024/01/13 08:20:10;;;;;;;41.30;29.67;;;;;;;2.16;100.00;102392.06;5010214;23;20049;-81
2024/01/13 08:22:36;;;;;;;39.90;28.17;;;;;;;2.16;100.00;102393.75;5015707;28;20048;-81
2024/01/13 08:25:02;;;;;;;42.88;30.83;;;;;;;1.85;100.00;102355.63;5015486;28;20117;-81
2024/01/13 08:27:27;;;;;;;41.50;29.83;;;;;;;2.17;100.00;102409.06;5015646;28;20026;-82
2024/01/13 08:29:52;;;;;;;40.72;28.65;;;;;;;2.17;100.00;102398.03;5016612;28;20049;-78
2024/01/13 08:32:18;;;;;;;41.20;28.33;;;;;;;2.18;100.00;102403.13;5017771;28;20045;-81
2024/01/13 08:34:43;;;;;;;43.47;30.75;;;;;;;2.18;100.00;102395.47;5017459;28;20043;-81
2024/01/13 08:37:09;;;;;;;42.80;28.90;;;;;;;2.22;100.00;102396.31;5017370;28;20025;-81
2024/01/13 08:39:35;;;;;;;40.63;29.13;;;;;;;1.94;100.00;102365.78;5034919;28;20072;-79
2024/01/13 08:42:00;;;;;;;43.10;30.40;;;;;;;2.11;100.00;102392.94;5034765;28;20423;-78
2024/01/13 08:44:27;;;;;;;41.72;29.95;;;;;;;2.25;100.00;102403.94;5034951;28;20029;-80
2024/01/13 08:46:52;;;;;;;41.88;30.30;;;;;;;2.27;100.00;102407.34;5034805;28;20488;-79
2024/01/13 08:49:18;;;;;;;42.03;30.10;;;;;;;2.27;100.00;102407.34;5034588;28;20026;-79
2024/01/13 08:51:43;;;;;;;43.55;29.05;;;;;;;2.15;100.00;102375.06;5034341;28;20026;-79
2024/01/13 08:54:09;;;;;;;44.03;31.55;;;;;;;2.32;100.00;102418.34;5034857;28;20155;-79
2024/01/13 08:56:34;;;;;;;43.63;30.45;;;;;;;2.34;100.00;102409.00;5034839;28;20469;-80
2024/01/13 08:59:01;;;;;;;39.42;28.50;;;;;;;2.34;100.00;102410.69;5034906;28;20025;-80
2024/01/13 09:01:27;;;;;;;39.95;28.60;;;;;;;2.30;100.00;102394.56;5034770;28;20032;-80
2024/01/13 09:03:53;;;;;;;41.25;27.55;;;;;;;2.39;100.00;102403.91;5034551;28;20026;-80
2024/01/13 09:06:18;;;;;;;41.70;28.77;;;;;;;2.40;100.00;102401.34;5034646;28;20087;-81
2024/01/13 09:08:43;;;;;;;43.58;29.27;;;;;;;2.41;100.00;102412.38;5017114;28;20124;-80
2024/01/13 09:11:09;;;;;;;39.75;27.83;;;;;;;2.41;100.00;102400.47;5034880;28;20380;-80
2024/01/13 09:13:34;;;;;;;40.58;28.90;;;;;;;2.19;100.00;102370.84;5034772;28;20026;-80
2024/01/13 09:16:00;;;;;;;42.28;29.92;;;;;;;1.93;100.00;102323.34;5034469;28;20036;-80
2024/01/13 09:18:25;;;;;;;41.97;29.02;;;;;;;2.19;100.00;102353.84;5016636;28;20116;-80
2024/01/13 09:20:51;;;;;;;40.38;28.20;;;;;;;2.26;100.00;102372.47;5034066;28;20379;-79
2024/01/13 09:23:17;;;;;;;44.58;28.77;;;;;;;2.41;100.00;102386.88;5034481;28;20068;-79
2024/01/13 09:25:42;;;;;;;42.35;29.27;;;;;;;2.31;100.00;102380.97;5034489;28;20060;-79
2024/01/13 09:28:07;;;;;;;43.47;29.25;;;;;;;2.40;100.00;102401.34;5034530;28;20092;-80
2024/01/13 09:30:33;;;;;;;42.38;28.05;;;;;;;2.42;100.00;102402.16;5034193;28;20025;-80
2024/01/13 09:32:58;;;;;;;41.85;30.00;;;;;;;2.33;100.00;102386.91;5034197;28;20056;-80
2024/01/13 09:35:24;;;;;;;44.75;30.42;;;;;;;2.43;100.00;102398.75;5033918;28;20037;-80
2024/01/13 09:37:49;;;;;;;40.97;29.05;;;;;;;2.45;100.00;102396.19;5033973;28;20052;-79
2024/01/13 09:40:16;;;;;;;41.22;28.40;;;;;;;2.25;100.00;102365.69;5034286;28;20034;-79
2024/01/13 09:42:44;;;;;;;40.95;29.58;;;;;;;2.47;100.00;102394.53;5032881;28;20036;-80
2024/01/13 09:45:10;;;;;;;38.92;28.10;;;;;;;2.46;100.00;102398.78;5034495;28;20033;-79
2024/01/13 09:47:37;;;;;;;41.40;27.88;;;;;;;2.50;100.00;102389.41;5033950;28;20462;-82
2024/01/13 09:50:04;;;;;;;39.88;29.02;;;;;;;2.50;100.00;102385.16;5033738;28;20036;-83
2024/01/13 09:52:30;;;;;;;40.25;29.35;;;;;;;2.51;100.00;102380.88;5033642;28;20099;-82
2024/01/13 09:55:00;;;;;;;40.67;28.58;;;;;;;1.70;100.00;102252.13;5033928;28;20022;-82
2024/01/13 09:57:27;;;;;;;44.92;30.65;;;;;;;2.08;100.00;102309.72;5033792;28;20022;-82
2024/01/13 09:59:52;;;;;;;40.50;28.08;;;;;;;2.52;100.00;102378.31;5033754;28;20021;-82
2024/01/13 10:02:18;;;;;;;43.05;29.95;;;;;;;2.48;100.00;102375.81;5033961;28;20025;-79
2024/01/13 10:04:44;;;;;;;40.20;30.45;;;;;;;2.51;100.00;102373.25;5032508;28;20484;-80
2024/01/13 10:07:10;;;;;;;41.13;29.70;;;;;;;2.40;100.00;102350.34;5033650;28;20036;-79
2024/01/13 10:09:35;;;;;;;39.08;27.92;;;;;;;2.53;100.00;102368.97;5015936;28;20026;-80
2024/01/13 10:12:06;;;;;;;39.92;28.77;;;;;;;2.56;100.00;102363.88;5033528;28;20021;-78
2024/01/13 10:14:32;;;;;;;41.50;29.08;;;;;;;2.49;100.00;102352.00;5033431;28;20095;-83
2024/01/13 10:17:02;;;;;;;39.22;29.38;;;;;;;2.56;100.00;102359.63;5033515;28;20473;-80
2024/01/13 10:19:27;;;;;;;41.67;29.52;;;;;;;2.48;100.00;102350.31;5033158;28;20080;-80
2024/01/13 10:21:53;;;;;;;39.70;29.95;;;;;;;2.55;100.00;102365.56;5032858;28;20049;-78
2024/01/13 10:24:18;;;;;;;41.78;31.33;;;;;;;2.41;100.00;102335.91;5031190;28;20478;-80
2024/01/13 10:26:43;;;;;;;40.20;29.48;;;;;;;2.54;100.00;102351.09;5032520;28;20048;-81
2024/01/13 10:29:09;;;;;;;42.90;29.83;;;;;;;2.41;100.00;102323.16;5033016;28;20031;-81
2024/01/13 10:31:36;;;;;;;38.78;29.13;;;;;;;2.53;100.00;102346.03;5032934;28;20027;-81
2024/01/13 10:34:02;;;;;;;39.38;30.05;;;;;;;2.56;100.00;102348.59;5015148;28;20033;-82
2024/01/13 10:36:27;;;;;;;39.72;29.77;;;;;;;2.37;100.00;102313.84;5032608;28;20416;-83
2024/01/13 10:38:53;;;;;;;37.88;29.33;;;;;;;2.28;100.00;102296.88;5032955;28;20394;-84
2024/01/13 10:41:23;;;;;;;38.90;29.45;;;;;;;2.53;100.00;102329.03;5032521;28;20051;-83
2024/01/13 10:43:54;;;;;;;38.15;29.10;;;;;;;2.62;100.00;102350.22;5014889;28;20036;-80
2024/01/13 10:46:22;;;;;;;43.15;31.13;;;;;;;2.55;100.00;102336.66;5032426;28;20037;-79
2024/01/13 10:48:51;;;;;;;39.03;29.20;;;;;;;2.62;100.00;102343.44;5030944;28;20104;-75
2024/01/13 10:51:56;;;;;;;38.63;29.20;;;;;;;2.65;100.00;102345.09;5032863;28;20022;-77
2024/01/13 10:54:25;;;;;;;37.78;29.02;;;;;;;2.64;100.00;102340.88;5032341;28;20054;-78
2024/01/13 10:56:51;;;;;;;39.47;27.67;;;;;;;2.63;100.00;102324.72;5030326;28;20501;-76
2024/01/13 10:59:17;;;;;;;36.17;27.58;;;;;;;2.58;100.00;102324.75;5032405;28;20060;-79
2024/01/13 11:01:45;;;;;;;35.70;27.63;;;;;;;2.50;100.00;102301.00;5032331;28;20200;-79
2024/01/13 11:04:11;;;;;;;34.33;27.52;;;;;;;2.65;100.00;102317.06;5032357;28;20029;-79
2024/01/13 11:06:36;;;;;;;35.40;27.10;;;;;;;2.68;100.00;102325.56;5031890;28;20029;-79
2024/01/13 11:09:05;;;;;;;33.08;26.08;;;;;;;2.38;100.00;102260.28;5031936;28;20030;-79
2024/01/13 11:11:38;;;;;;;33.25;26.05;;;;;;;2.68;100.00;102307.69;5032166;28;20017;-79
2024/01/13 11:14:12;;;;;;;33.70;25.35;;;;;;;2.70;100.00;102307.69;5032286;28;20018;-78
2024/01/13 11:16:39;;;;;;;32.47;25.48;;;;;;;2.61;100.00;102298.38;5014721;28;20431;-78
2024/01/13 11:19:06;;;;;;;32.53;26.40;;;;;;;2.72;100.00;102299.16;5032298;28;20108;-79
2024/01/13 11:21:33;;;;;;;32.30;24.80;;;;;;;2.50;100.00;102267.00;5031752;28;20050;-82
2024/01/13 11:24:07;;;;;;;33.17;25.17;;;;;;;2.75;100.00;102303.38;5030939;28;20033;-76
2024/01/13 11:26:32;;;;;;;31.08;25.52;;;;;;;2.78;100.00;102301.66;5032526;28;20112;-77
2024/01/13 11:28:58;;;;;;;32.00;24.70;;;;;;;2.78;100.00;102299.13;5032001;28;20188;-78
2024/01/13 11:31:43;;;;;;;32.42;24.23;;;;;;;2.82;100.00;102310.13;5032052;28;20091;-77
2024/01/13 11:34:11;;;;;;;27.63;22.77;;;;;;;2.81;100.00;102294.00;5031970;28;20461;-76
2024/01/13 11:36:45;;;;;;;30.05;23.50;;;;;;;2.90;100.00;102308.38;5031657;28;20026;-78
2024/01/13 11:39:11;;;;;;;30.55;21.70;;;;;;;2.88;100.00;102307.56;5031965;28;20026;-77